Hornitos, CA (95325)

5:01 PM PDT on June 03, 2015 (GMT -0700)
Lake McClure Ca. | | Change Station
CLOSE
Current Station
Personal Weather Station
Location: California, CA
Elevation: 1122 ft
Nearby Weather Stations

Elev 1122 ft 37.61 °N, 120.28 °W | Updated 9 minutes ago

Clear
Clear
80.9 °F
Feels Like 79 °F
N
6.0
Wind Variable Wind from WSW
Gusts 10.0 mph

Today
High -- | Low -- °F
--% Chance of Precip.
Yesterday
High -- | Low -- °F
Precip. -- in
5:40 AM 8:17 PM
Full, 98% visible
Pressure 29.80 in
Visibility 10.0 miles
Clouds Mostly Cloudy 8500 ft
Heat Index 79 °F
Dew Point 43 °F
Humidity 26%
Rainfall 0.00 in
Snow Depth Not available.
UV 3 out of 12
Pollen 5.10 out of 12
Air Quality Not available.
Flu Activity Sporadic
METAR KMER 032345Z 35012KT 10SM BKN085 29/04 A2980

More Conditions Fewer Conditions

Pressure 29.80 in
Visibility 10.0 miles
Clouds Mostly Cloudy 8500 ft
Heat Index 79 °F
Dew Point 43 °F
Humidity 26%
Rainfall 0.00 in
Snow Depth Not available.
UV 3 out of 12
Pollen 5.10 out of 12
Air Quality Not available.
Flu Activity Sporadic
METAR KMER 032345Z 35012KT 10SM BKN085 29/04 A2980

More Conditions Fewer Conditions

10-Day Weather Forecast

×

Almanac

Astronomy

Jun. 03, 2015 Rise Set
Actual Time
Civil Twilight
Nautical Twilight
Astronomical Twilight
Moon
Length of Visible Light
Length of Day
Tomorrow will be .
, % of the Moon is Illuminated

Today's Extremes

State Highs State Lows

Community

WunderPhotos

Upload Photos

1,826,306 photos uploaded!

WunderBlogs® & News

Nearby

Air Quality

  Air Quality AQ Index Pollutant
Not available.

Snow Depth

Station Depth Elevation

Earthquake Activity

City Distance Mag. Time & Date
Minimum magnitude displayed is 2.5.

Coastal Water Temperatures

Place Temperature

Stations

Nearby Weather Stations

Station Location Temp. Windchill Dew Point Humidity Wind Precip. Elev Updated Type